Time;durP1;ratioP1;P1;durP2;ratioP2;P2;SDS_P1;SDS_P2;PMS_P1;PMS_P2;Temp;Humidity;BMP_temperature;BMP_pressure;BME280_temperature;BME280_humidity;BME280_pressure;Samples;Min_cycle;Max_cycle;Signal;HPM_P1;HPM_P2
2021/09/16 00:00:19;;;;;;;8.48;4.38;;;17.60;94.20;;;;;;4963818;28;20031;-69
2021/09/16 00:02:45;;;;;;;7.78;3.65;;;17.50;94.50;;;;;;4944610;28;20090;-69
2021/09/16 00:05:12;;;;;;;5.13;3.80;;;17.50;94.50;;;;;;4944358;28;20155;-69
2021/09/16 00:07:38;;;;;;;7.90;3.92;;;17.50;94.40;;;;;;4951376;28;20469;-69
2021/09/16 00:10:05;;;;;;;5.63;3.88;;;17.40;95.00;;;;;;4949277;28;20063;-69
2021/09/16 00:12:31;;;;;;;9.07;4.40;;;17.40;95.20;;;;;;4950693;28;20330;-69
2021/09/16 00:14:56;;;;;;;7.63;4.70;;;17.40;94.90;;;;;;4939677;28;20384;-68
2021/09/16 00:17:22;;;;;;;5.28;4.28;;;17.40;94.90;;;;;;4947495;28;20031;-69
2021/09/16 00:19:48;;;;;;;14.70;4.53;;;17.50;94.90;;;;;;4945946;28;20639;-68
2021/09/16 00:22:13;;;;;;;6.25;4.55;;;17.50;94.90;;;;;;4939050;28;20034;-69
2021/09/16 00:24:39;;;;;;;7.03;4.30;;;17.50;94.80;;;;;;4948095;28;20058;-69
2021/09/16 00:27:05;;;;;;;9.00;4.82;;;17.50;94.80;;;;;;4943503;28;20054;-69
2021/09/16 00:29:31;;;;;;;6.18;4.47;;;17.50;94.70;;;;;;4963967;28;20035;-69
2021/09/16 00:31:57;;;;;;;8.30;4.43;;;17.50;94.90;;;;;;4944722;28;22348;-69
2021/09/16 00:34:24;;;;;;;5.38;3.83;;;17.50;95.20;;;;;;4953373;28;20102;-69
2021/09/16 00:36:50;;;;;;;6.82;4.45;;;17.50;94.90;;;;;;4961818;28;20503;-69
2021/09/16 00:39:15;;;;;;;6.93;4.75;;;17.60;95.00;;;;;;4964862;28;20027;-69
2021/09/16 00:41:41;;;;;;;7.40;4.43;;;17.60;94.90;;;;;;4947308;28;20028;-69
2021/09/16 00:44:07;;;;;;;7.22;3.83;;;17.50;94.80;;;;;;4962876;28;20090;-69
2021/09/16 00:46:33;;;;;;;6.50;4.22;;;17.50;94.80;;;;;;4956484;28;20058;-69
2021/09/16 00:48:59;;;;;;;11.13;4.60;;;17.50;95.20;;;;;;4948447;28;20035;-70
2021/09/16 00:51:25;;;;;;;8.15;4.35;;;17.50;95.10;;;;;;4944614;28;20019;-69
2021/09/16 00:53:53;;;;;;;8.48;4.97;;;17.50;95.00;;;;;;4947095;28;20373;-69
2021/09/16 00:56:20;;;;;;;8.13;4.55;;;17.50;95.00;;;;;;4951568;28;20480;-69
2021/09/16 00:58:49;;;;;;;8.30;4.57;;;17.50;95.00;;;;;;4949299;28;20031;-69
2021/09/16 01:01:16;;;;;;;8.35;4.20;;;17.50;95.00;;;;;;4947531;28;20034;-69
2021/09/16 01:03:42;;;;;;;6.35;3.95;;;17.50;94.80;;;;;;4950856;28;20131;-70
2021/09/16 01:06:08;;;;;;;7.68;4.00;;;17.40;94.60;;;;;;4947909;28;20131;-69
2021/09/16 01:08:35;;;;;;;5.57;3.70;;;17.40;94.10;;;;;;4949858;28;20051;-69
2021/09/16 01:11:01;;;;;;;6.45;3.50;;;17.40;94.30;;;;;;4949974;28;20043;-70
2021/09/16 01:13:26;;;;;;;7.97;4.18;;;17.30;94.00;;;;;;4944743;28;20354;-70
2021/09/16 01:15:52;;;;;;;5.68;3.83;;;17.30;94.10;;;;;;4942466;28;20038;-69
2021/09/16 01:18:18;;;;;;;8.73;4.05;;;17.30;94.40;;;;;;4945387;28;20500;-69
2021/09/16 01:20:43;;;;;;;7.32;4.50;;;17.30;94.40;;;;;;4945381;28;20028;-70
2021/09/16 01:23:09;;;;;;;6.47;4.43;;;17.30;95.10;;;;;;4947562;28;20051;-69
2021/09/16 01:25:35;;;;;;;5.70;3.92;;;17.20;94.70;;;;;;4959276;28;20489;-69
2021/09/16 01:28:02;;;;;;;6.57;3.92;;;17.30;94.40;;;;;;4943038;28;20563;-69
2021/09/16 01:30:29;;;;;;;7.72;4.03;;;17.30;94.20;;;;;;4944009;28;20655;-69
2021/09/16 01:32:56;;;;;;;6.13;4.30;;;17.30;94.50;;;;;;4941285;28;20027;-68
2021/09/16 01:35:23;;;;;;;6.97;4.63;;;17.30;94.30;;;;;;4955492;28;20170;-69
2021/09/16 01:37:49;;;;;;;4.22;3.70;;;17.30;94.10;;;;;;4945826;28;20488;-69
2021/09/16 01:40:14;;;;;;;6.78;4.32;;;17.30;93.90;;;;;;4947087;28;20163;-69
2021/09/16 01:42:45;;;;;;;6.75;4.07;;;17.20;94.30;;;;;;4947168;28;20129;-69
2021/09/16 01:45:13;;;;;;;7.30;4.40;;;17.30;94.20;;;;;;4946997;28;20093;-68
2021/09/16 01:47:38;;;;;;;6.90;4.20;;;17.30;94.30;;;;;;4949395;28;20050;-69
2021/09/16 01:50:04;;;;;;;6.18;4.53;;;17.30;94.90;;;;;;4950574;28;20028;-68
2021/09/16 01:52:30;;;;;;;9.88;4.72;;;17.20;95.10;;;;;;4951181;28;20049;-69
2021/09/16 01:54:56;;;;;;;10.75;4.78;;;17.20;95.00;;;;;;4948563;28;20019;-69
2021/09/16 01:57:21;;;;;;;8.38;4.55;;;17.20;95.10;;;;;;4948799;28;20031;-69
2021/09/16 01:59:47;;;;;;;6.43;4.13;;;17.20;94.80;;;;;;4950886;28;20134;-69
2021/09/16 02:02:12;;;;;;;6.40;3.90;;;17.20;94.90;;;;;;4963190;28;20182;-69
2021/09/16 02:04:38;;;;;;;8.38;3.85;;;17.20;94.70;;;;;;4947062;28;20023;-69
2021/09/16 02:07:04;;;;;;;5.45;4.20;;;17.20;94.60;;;;;;4945979;28;20036;-69
2021/09/16 02:09:29;;;;;;;5.57;3.97;;;17.20;94.40;;;;;;4947782;28;20393;-69
2021/09/16 02:11:55;;;;;;;7.35;4.25;;;17.20;94.40;;;;;;4967518;28;20114;-69
2021/09/16 02:14:20;;;;;;;7.35;3.83;;;17.20;94.40;;;;;;4946596;28;20059;-70
2021/09/16 02:16:46;;;;;;;6.25;4.05;;;17.20;94.30;;;;;;4948773;28;20346;-69
2021/09/16 02:19:12;;;;;;;7.53;4.55;;;17.10;94.60;;;;;;4944546;28;20035;-70
2021/09/16 02:21:37;;;;;;;7.78;3.92;;;17.10;94.70;;;;;;4965016;28;20087;-69
2021/09/16 02:24:03;;;;;;;8.18;4.20;;;17.10;94.70;;;;;;4967592;28;20040;-69
2021/09/16 02:26:29;;;;;;;8.38;4.40;;;17.10;95.00;;;;;;4959924;28;20058;-69
2021/09/16 02:28:54;;;;;;;7.95;4.45;;;17.10;94.60;;;;;;4946987;28;20481;-69
2021/09/16 02:31:20;;;;;;;7.63;4.53;;;17.10;94.50;;;;;;4949080;28;20043;-69
2021/09/16 02:33:46;;;;;;;6.80;4.47;;;17.10;94.40;;;;;;4949019;28;20039;-69
2021/09/16 02:36:11;;;;;;;6.30;3.90;;;17.10;94.30;;;;;;4947516;28;20038;-69
2021/09/16 02:38:37;;;;;;;6.80;4.22;;;17.10;94.30;;;;;;4947573;28;20432;-69
2021/09/16 02:41:02;;;;;;;9.00;4.78;;;17.10;94.50;;;;;;4943996;28;20484;-70
2021/09/16 02:43:28;;;;;;;6.88;4.68;;;17.10;94.50;;;;;;4949172;28;20528;-71
2021/09/16 02:45:54;;;;;;;6.68;4.60;;;17.00;94.90;;;;;;4950876;28;20078;-69
2021/09/16 02:48:19;;;;;;;5.90;4.20;;;16.90;94.70;;;;;;4947356;28;20101;-69
2021/09/16 02:50:45;;;;;;;7.47;4.50;;;16.80;94.90;;;;;;4966953;28;20038;-69
2021/09/16 02:53:11;;;;;;;6.82;3.95;;;16.70;95.50;;;;;;4944782;28;20035;-69
2021/09/16 02:55:36;;;;;;;9.45;4.40;;;16.80;95.30;;;;;;4948562;28;20031;-69
2021/09/16 02:58:02;;;;;;;7.15;4.55;;;16.80;95.30;;;;;;4946186;28;20035;-70
2021/09/16 03:00:28;;;;;;;5.25;4.40;;;16.80;95.40;;;;;;4949353;28;20038;-69
2021/09/16 03:02:54;;;;;;;7.95;4.43;;;16.90;95.40;;;;;;4953607;28;20527;-69
2021/09/16 03:05:19;;;;;;;5.80;3.95;;;16.80;95.30;;;;;;4947893;28;20035;-69
2021/09/16 03:07:45;;;;;;;6.53;4.28;;;16.80;95.20;;;;;;4947761;28;20054;-70
2021/09/16 03:10:12;;;;;;;8.38;4.55;;;16.90;95.00;;;;;;4944277;28;20042;-69
2021/09/16 03:12:39;;;;;;;5.65;3.47;;;16.80;94.90;;;;;;4940443;28;20019;-69
2021/09/16 03:15:05;;;;;;;5.40;3.88;;;16.80;94.70;;;;;;4944286;28;20066;-69
2021/09/16 03:17:31;;;;;;;4.25;3.38;;;16.80;94.60;;;;;;4942597;28;20319;-70
2021/09/16 03:19:56;;;;;;;4.78;3.70;;;16.70;94.50;;;;;;4947419;28;20035;-69
2021/09/16 03:22:22;;;;;;;4.53;3.47;;;16.80;94.50;;;;;;4947222;28;20389;-69
2021/09/16 03:24:48;;;;;;;5.85;3.33;;;16.80;94.50;;;;;;4946964;28;20031;-69
2021/09/16 03:27:13;;;;;;;6.82;3.63;;;16.80;94.60;;;;;;4942435;28;20042;-69
2021/09/16 03:29:39;;;;;;;5.00;4.03;;;16.70;94.60;;;;;;4950711;28;20027;-69
2021/09/16 03:32:05;;;;;;;5.85;3.60;;;16.80;94.60;;;;;;4948166;28;20035;-69
2021/09/16 03:34:31;;;;;;;6.20;3.92;;;16.70;94.70;;;;;;4946151;28;20119;-69
2021/09/16 03:36:56;;;;;;;7.47;4.63;;;16.70;94.70;;;;;;4948576;28;20465;-69
2021/09/16 03:39:22;;;;;;;8.13;4.57;;;16.70;94.70;;;;;;4948230;28;20033;-69
2021/09/16 03:41:47;;;;;;;6.55;3.95;;;16.70;94.80;;;;;;4946256;28;20456;-69
2021/09/16 03:44:13;;;;;;;7.28;4.60;;;16.60;94.80;;;;;;4947381;28;20086;-70
2021/09/16 03:46:39;;;;;;;6.55;4.78;;;16.70;94.90;;;;;;4948429;28;20031;-70
2021/09/16 03:49:04;;;;;;;7.47;4.30;;;16.70;94.80;;;;;;4947926;28;20016;-69
2021/09/16 03:51:30;;;;;;;6.57;4.38;;;16.60;94.80;;;;;;4947861;28;20035;-69
2021/09/16 03:53:56;;;;;;;6.07;4.20;;;16.70;94.90;;;;;;4939724;28;20078;-69
2021/09/16 03:56:21;;;;;;;9.75;5.20;;;16.70;94.80;;;;;;4963511;28;20468;-69
2021/09/16 03:58:47;;;;;;;7.15;4.40;;;16.60;95.20;;;;;;4945121;28;22352;-70
2021/09/16 04:01:13;;;;;;;5.03;4.05;;;16.60;95.20;;;;;;4946650;28;20130;-69
2021/09/16 04:03:38;;;;;;;5.72;4.13;;;16.60;95.00;;;;;;4950279;28;20388;-69
2021/09/16 04:06:04;;;;;;;8.23;4.43;;;16.60;95.30;;;;;;4942959;28;20027;-70
2021/09/16 04:08:29;;;;;;;6.80;4.40;;;16.60;95.20;;;;;;4947956;28;20031;-69
2021/09/16 04:10:56;;;;;;;5.78;4.07;;;16.70;95.20;;;;;;4946752;28;20358;-69
2021/09/16 04:13:22;;;;;;;6.80;4.30;;;16.60;95.30;;;;;;4946690;28;20055;-69
2021/09/16 04:15:47;;;;;;;5.85;4.35;;;16.60;95.20;;;;;;4944271;28;20391;-70
2021/09/16 04:18:13;;;;;;;5.85;4.15;;;16.60;95.00;;;;;;4942878;28;20033;-69
2021/09/16 04:20:39;;;;;;;8.23;4.78;;;16.70;95.00;;;;;;4945543;28;20035;-69
2021/09/16 04:23:04;;;;;;;5.13;4.00;;;16.60;95.00;;;;;;4945866;28;20500;-69
2021/09/16 04:25:30;;;;;;;5.93;4.10;;;16.70;95.00;;;;;;4949749;29;20035;-69
2021/09/16 04:27:56;;;;;;;10.35;5.22;;;16.70;95.00;;;;;;4948504;28;20050;-70
2021/09/16 04:30:22;;;;;;;7.15;4.75;;;16.60;95.30;;;;;;4945456;28;20038;-70
2021/09/16 04:32:47;;;;;;;5.00;3.90;;;16.60;95.50;;;;;;4946010;28;20027;-69
2021/09/16 04:35:13;;;;;;;6.25;4.97;;;16.60;95.70;;;;;;4938124;28;20111;-70
2021/09/16 04:37:39;;;;;;;7.03;4.20;;;16.60;95.30;;;;;;4945041;28;20472;-70
2021/09/16 04:40:06;;;;;;;8.10;5.22;;;16.60;95.30;;;;;;4964105;28;20042;-70
2021/09/16 04:42:32;;;;;;;6.55;4.45;;;16.60;95.40;;;;;;4950556;28;20147;-69
2021/09/16 04:44:57;;;;;;;5.50;4.10;;;16.60;95.30;;;;;;4949520;28;20042;-70
2021/09/16 04:47:23;;;;;;;6.40;3.72;;;16.60;95.00;;;;;;4945063;28;20031;-70
2021/09/16 04:49:49;;;;;;;5.88;3.70;;;16.60;94.90;;;;;;4949272;28;20035;-70
2021/09/16 04:52:14;;;;;;;6.05;3.42;;;16.50;94.80;;;;;;4953220;28;20097;-69
2021/09/16 04:54:41;;;;;;;4.68;3.63;;;16.50;94.70;;;;;;4946946;28;20126;-69
2021/09/16 04:57:07;;;;;;;5.88;3.78;;;16.50;94.60;;;;;;4956965;28;20031;-69
2021/09/16 04:59:33;;;;;;;5.35;4.32;;;16.50;94.60;;;;;;4944547;28;20031;-69
2021/09/16 05:01:58;;;;;;;5.72;3.90;;;16.50;94.80;;;;;;4940424;28;20047;-69
2021/09/16 05:04:24;;;;;;;5.93;4.20;;;16.60;95.20;;;;;;4948011;28;20054;-69
2021/09/16 05:06:50;;;;;;;4.13;3.33;;;16.60;95.00;;;;;;4964929;28;20034;-69
2021/09/16 05:09:15;;;;;;;4.93;3.60;;;16.60;94.80;;;;;;4959270;28;20051;-69
2021/09/16 05:11:42;;;;;;;4.07;3.63;;;16.50;94.70;;;;;;4946431;28;20244;-70
2021/09/16 05:14:08;;;;;;;4.90;3.45;;;16.50;95.00;;;;;;4940335;28;20038;-69
2021/09/16 05:16:35;;;;;;;6.28;3.70;;;16.50;94.90;;;;;;4940481;28;20042;-69
2021/09/16 05:19:00;;;;;;;6.70;3.75;;;16.50;94.80;;;;;;4953585;28;20042;-69
2021/09/16 05:21:26;;;;;;;4.70;3.75;;;16.50;94.80;;;;;;4951555;28;20032;-70
2021/09/16 05:23:52;;;;;;;6.60;3.80;;;16.50;94.80;;;;;;4952420;28;20066;-69
2021/09/16 05:26:17;;;;;;;7.65;4.38;;;16.50;95.00;;;;;;4952737;28;20046;-70
2021/09/16 05:28:44;;;;;;;5.75;3.90;;;16.50;95.40;;;;;;4948729;28;20396;-69
2021/09/16 05:31:10;;;;;;;4.72;3.75;;;16.50;95.50;;;;;;4945897;28;20050;-69
2021/09/16 05:33:36;;;;;;;8.57;4.10;;;16.50;95.40;;;;;;4945307;28;20031;-69
2021/09/16 05:36:02;;;;;;;5.78;3.72;;;16.50;95.50;;;;;;4947730;28;20084;-68
2021/09/16 05:38:28;;;;;;;5.72;3.75;;;16.50;95.40;;;;;;4950390;28;20120;-69
2021/09/16 05:40:54;;;;;;;5.90;3.40;;;16.60;95.40;;;;;;4949418;28;20027;-69
2021/09/16 05:43:20;;;;;;;5.70;3.90;;;16.60;95.40;;;;;;4965611;28;20143;-69
2021/09/16 05:45:46;;;;;;;6.05;3.83;;;16.60;95.70;;;;;;4953541;28;20473;-70
2021/09/16 05:48:11;;;;;;;6.65;3.83;;;16.60;95.30;;;;;;4942123;28;20038;-70
2021/09/16 05:50:37;;;;;;;7.47;3.92;;;16.60;95.30;;;;;;4947826;28;20024;-70
2021/09/16 05:53:03;;;;;;;6.85;4.00;;;16.50;95.30;;;;;;4950005;28;20162;-69
2021/09/16 05:55:29;;;;;;;7.05;4.45;;;16.50;95.40;;;;;;4948481;28;20023;-69
2021/09/16 05:57:55;;;;;;;6.70;4.25;;;16.60;95.40;;;;;;4952777;28;20022;-68
2021/09/16 06:00:23;;;;;;;5.38;4.28;;;16.60;95.50;;;;;;4950434;28;20031;-68
2021/09/16 06:02:49;;;;;;;7.30;4.43;;;16.60;95.50;;;;;;4957385;28;20046;-69
2021/09/16 06:05:15;;;;;;;6.05;4.60;;;16.60;95.40;;;;;;4941820;28;20031;-70
2021/09/16 06:07:41;;;;;;;8.30;4.53;;;16.60;95.40;;;;;;4954089;29;20023;-70
2021/09/16 06:10:07;;;;;;;7.07;4.28;;;16.70;95.30;;;;;;4949672;28;20035;-69
2021/09/16 06:12:33;;;;;;;8.35;4.95;;;16.60;95.50;;;;;;4945809;28;20170;-70
2021/09/16 06:14:59;;;;;;;7.20;4.88;;;16.60;95.60;;;;;;4942420;28;20041;-70
2021/09/16 06:17:25;;;;;;;6.38;4.70;;;16.70;95.70;;;;;;4947001;28;20397;-70
2021/09/16 06:19:50;;;;;;;7.65;4.55;;;16.60;95.50;;;;;;4952466;28;20110;-69
2021/09/16 06:22:17;;;;;;;7.35;4.57;;;16.70;95.60;;;;;;4949705;28;20043;-69
2021/09/16 06:24:43;;;;;;;8.25;4.38;;;16.70;95.60;;;;;;4949695;28;20118;-69
2021/09/16 06:27:09;;;;;;;11.15;5.30;;;16.70;95.50;;;;;;4950610;28;20421;-70
2021/09/16 06:29:34;;;;;;;8.77;5.25;;;16.80;95.50;;;;;;4951426;28;20031;-69
2021/09/16 06:32:00;;;;;;;7.60;5.07;;;16.70;95.40;;;;;;4966852;28;20035;-69
2021/09/16 06:34:26;;;;;;;7.45;4.80;;;16.70;95.60;;;;;;4951895;28;20031;-69
2021/09/16 06:36:52;;;;;;;7.85;5.28;;;16.80;95.80;;;;;;4951254;28;20035;-69
2021/09/16 06:39:18;;;;;;;7.20;4.90;;;16.80;95.70;;;;;;4949164;28;20404;-69
2021/09/16 06:41:44;;;;;;;8.00;5.10;;;16.80;95.70;;;;;;4950707;29;20043;-68
2021/09/16 06:44:10;;;;;;;8.30;4.68;;;16.80;95.80;;;;;;4964020;28;20031;-68
2021/09/16 06:46:36;;;;;;;10.63;5.65;;;16.80;95.90;;;;;;4945948;28;20122;-69
2021/09/16 06:49:01;;;;;;;7.60;5.25;;;16.80;95.90;;;;;;4942055;28;20035;-68
2021/09/16 06:51:27;;;;;;;8.43;5.90;;;16.80;96.10;;;;;;4949274;29;20122;-69
2021/09/16 06:53:54;;;;;;;8.63;5.22;;;16.80;96.30;;;;;;4952970;28;20086;-69
2021/09/16 06:56:19;;;;;;;7.88;5.43;;;16.90;96.50;;;;;;4950345;28;20028;-69
2021/09/16 06:58:45;;;;;;;8.68;5.90;;;16.90;96.30;;;;;;4946846;28;20389;-69
2021/09/16 07:01:11;;;;;;;7.32;5.47;;;17.00;96.50;;;;;;4949903;28;20042;-69
2021/09/16 07:03:36;;;;;;;7.32;5.40;;;17.00;96.10;;;;;;4953190;28;20023;-69
2021/09/16 07:06:02;;;;;;;7.00;4.50;;;17.00;96.10;;;;;;4949574;28;20110;-69
2021/09/16 07:08:28;;;;;;;11.77;5.40;;;17.00;96.10;;;;;;4949963;28;20049;-69
2021/09/16 07:10:54;;;;;;;9.88;5.60;;;17.10;96.30;;;;;;4952063;29;20082;-69
2021/09/16 07:13:20;;;;;;;9.45;5.13;;;17.20;96.30;;;;;;4947611;28;20761;-70
2021/09/16 07:15:46;;;;;;;9.85;5.65;;;17.20;96.50;;;;;;4947767;29;20110;-69
2021/09/16 07:18:11;;;;;;;7.65;5.20;;;17.30;96.80;;;;;;4950207;28;20023;-69
2021/09/16 07:20:37;;;;;;;7.30;4.97;;;17.30;96.40;;;;;;4948282;28;20051;-69
2021/09/16 07:23:02;;;;;;;11.15;5.93;;;17.30;96.60;;;;;;4951697;28;20134;-68
2021/09/16 07:25:28;;;;;;;11.50;6.40;;;17.40;96.70;;;;;;4946916;28;20046;-69
2021/09/16 07:27:54;;;;;;;7.75;5.35;;;17.40;96.70;;;;;;4949480;28;20027;-69
2021/09/16 07:30:19;;;;;;;7.70;5.88;;;17.50;96.40;;;;;;4963667;28;20038;-69
2021/09/16 07:32:45;;;;;;;8.20;4.90;;;17.50;96.20;;;;;;4949090;28;20034;-69
2021/09/16 07:35:11;;;;;;;7.05;5.38;;;17.50;96.20;;;;;;4952640;28;20456;-69
2021/09/16 07:37:38;;;;;;;8.85;5.38;;;17.50;95.90;;;;;;4950538;28;20035;-69
2021/09/16 07:40:04;;;;;;;8.20;5.38;;;17.50;96.00;;;;;;4951113;28;20034;-68
2021/09/16 07:42:30;;;;;;;7.13;4.72;;;17.50;95.90;;;;;;4950892;29;20106;-69
2021/09/16 07:44:56;;;;;;;8.52;5.00;;;17.60;95.70;;;;;;4948213;28;20106;-68
2021/09/16 07:47:21;;;;;;;8.18;5.43;;;17.60;95.60;;;;;;4946733;28;20035;-69
2021/09/16 07:49:47;;;;;;;7.68;5.47;;;17.60;96.20;;;;;;4960387;28;20552;-68
2021/09/16 07:52:13;;;;;;;9.43;5.55;;;17.60;96.20;;;;;;4953277;28;20114;-69
2021/09/16 07:54:39;;;;;;;10.13;5.65;;;17.70;96.20;;;;;;4946982;28;20019;-69
2021/09/16 07:57:05;;;;;;;9.68;5.47;;;17.70;96.20;;;;;;4949526;28;20074;-69
2021/09/16 07:59:31;;;;;;;8.73;6.15;;;17.80;96.50;;;;;;4945377;28;20152;-69
2021/09/16 08:01:56;;;;;;;8.73;5.60;;;17.80;96.30;;;;;;4950901;28;20609;-68
2021/09/16 08:04:23;;;;;;;8.85;6.20;;;17.80;96.40;;;;;;4950740;28;20086;-69
2021/09/16 08:06:49;;;;;;;8.88;5.85;;;17.80;96.80;;;;;;4950254;28;20032;-69
2021/09/16 08:09:14;;;;;;;7.85;5.88;;;17.90;97.10;;;;;;4953424;28;20027;-69
2021/09/16 08:11:40;;;;;;;13.27;6.90;;;17.90;97.10;;;;;;4945279;28;20041;-69
2021/09/16 08:14:07;;;;;;;9.93;5.57;;;18.00;97.50;;;;;;4949476;28;20130;-69
2021/09/16 08:16:33;;;;;;;11.40;5.90;;;18.00;97.20;;;;;;4946270;28;20098;-70
2021/09/16 08:19:00;;;;;;;10.55;6.28;;;18.10;97.40;;;;;;4944902;28;20042;-69
2021/09/16 08:21:27;;;;;;;10.13;6.38;;;18.10;97.20;;;;;;4947893;28;20027;-70
2021/09/16 08:23:53;;;;;;;11.30;6.53;;;18.10;97.80;;;;;;4948174;28;20448;-69
2021/09/16 08:26:19;;;;;;;11.13;6.28;;;18.10;97.30;;;;;;4952519;28;20102;-69
2021/09/16 08:28:44;;;;;;;12.32;6.95;;;18.10;97.20;;;;;;4946382;28;20031;-69
2021/09/16 08:31:10;;;;;;;10.77;7.30;;;18.20;97.40;;;;;;4963031;28;20487;-70
2021/09/16 08:33:36;;;;;;;12.45;6.63;;;18.20;97.50;;;;;;4949204;28;20035;-69
2021/09/16 08:36:02;;;;;;;9.65;6.65;;;18.30;97.70;;;;;;4947659;28;20035;-70
2021/09/16 08:38:28;;;;;;;12.07;6.88;;;18.40;98.10;;;;;;4948736;28;20038;-69
2021/09/16 08:40:54;;;;;;;13.07;6.95;;;18.50;98.30;;;;;;4942460;28;20041;-70
2021/09/16 08:43:21;;;;;;;9.73;6.53;;;18.60;97.70;;;;;;4943814;28;20130;-70
2021/09/16 08:45:48;;;;;;;8.57;6.13;;;18.50;97.10;;;;;;4957086;28;20039;-69
2021/09/16 08:48:14;;;;;;;7.82;4.80;;;18.60;97.60;;;;;;4946187;28;20031;-69
2021/09/16 08:50:40;;;;;;;8.18;4.78;;;18.70;96.90;;;;;;4950014;28;20035;-69
2021/09/16 08:53:07;;;;;;;10.18;4.95;;;18.70;96.80;;;;;;4943582;28;20046;-69
2021/09/16 08:55:33;;;;;;;8.93;4.70;;;18.80;96.60;;;;;;4946487;28;20023;-69
2021/09/16 08:58:03;;;;;;;6.43;4.47;;;18.90;96.60;;;;;;4949972;28;20042;-71
2021/09/16 09:00:31;;;;;;;6.78;4.60;;;19.00;95.90;;;;;;4948436;28;20035;-69
2021/09/16 09:02:58;;;;;;;9.48;4.10;;;19.10;96.20;;;;;;4951953;28;20035;-69
2021/09/16 09:05:26;;;;;;;8.07;4.65;;;19.10;95.30;;;;;;4948890;28;20044;-69
2021/09/16 09:07:54;;;;;;;9.52;4.70;;;19.10;95.10;;;;;;4952845;28;20066;-69
2021/09/16 09:10:40;;;;;;;7.68;4.75;;;19.10;95.50;;;;;;4951377;28;20064;-69
2021/09/16 09:13:10;;;;;;;6.55;4.30;;;19.10;95.50;;;;;;4948981;28;20496;-69
2021/09/16 09:15:38;;;;;;;4.60;3.80;;;19.20;95.80;;;;;;4963079;28;20023;-69
2021/09/16 09:18:05;;;;;;;;;;;19.30;95.60;;;;;;4947370;28;20023;-69
2021/09/16 09:20:32;;;;;;;6.75;3.60;;;19.40;94.80;;;;;;4953229;28;19941;-69
2021/09/16 09:22:58;;;;;;;5.32;3.55;;;19.40;94.60;;;;;;4953017;28;20062;-69
2021/09/16 09:25:25;;;;;;;6.72;4.00;;;19.40;94.40;;;;;;4953101;28;20033;-68
2021/09/16 09:27:55;;;;;;;5.10;3.60;;;19.40;94.30;;;;;;4948433;28;20051;-69
2021/09/16 09:30:27;;;;;;;6.00;3.85;;;19.50;94.10;;;;;;4962281;28;20047;-69
2021/09/16 09:33:02;;;;;;;6.57;3.70;;;19.50;93.70;;;;;;4948216;28;20023;-69
2021/09/16 09:35:28;;;;;;;7.05;3.78;;;19.40;93.70;;;;;;4946752;28;20166;-69
2021/09/16 09:37:54;;;;;;;7.22;3.58;;;19.40;93.80;;;;;;4942757;28;20516;-69
2021/09/16 09:40:28;;;;;;;7.95;3.58;;;19.40;93.80;;;;;;4945267;28;20027;-69
2021/09/16 09:42:54;;;;;;;5.88;4.03;;;19.50;93.50;;;;;;4945616;28;20384;-68
2021/09/16 09:45:20;;;;;;;5.32;4.00;;;19.50;93.90;;;;;;4946179;28;20034;-69
2021/09/16 09:47:48;;;;;;;5.88;3.80;;;19.50;93.60;;;;;;4952268;28;20031;-69
2021/09/16 09:50:20;;;;;;;6.47;3.88;;;19.60;93.80;;;;;;4946860;28;20053;-69
2021/09/16 09:52:45;;;;;;;5.63;4.40;;;19.60;93.50;;;;;;4944764;28;20031;-70
2021/09/16 09:55:14;;;;;;;6.45;4.28;;;19.70;93.90;;;;;;4964186;28;20185;-69
2021/09/16 09:57:40;;;;;;;;;;;19.70;93.50;;;;;;4950473;28;20027;-69
2021/09/16 10:00:10;;;;;;;5.82;3.63;;;19.70;93.20;;;;;;4946378;28;19914;-69
2021/09/16 10:02:55;;;;;;;3.65;3.10;;;19.80;93.20;;;;;;4949388;28;20039;-70
2021/09/16 10:05:26;;;;;;;5.55;3.60;;;19.80;93.20;;;;;;4953742;28;20081;-70
2021/09/16 10:07:54;;;;;;;5.15;3.22;;;19.90;93.30;;;;;;4953590;28;20031;-70
2021/09/16 10:10:20;;;;;;;3.42;2.88;;;19.90;93.30;;;;;;4966499;28;20061;-70
2021/09/16 10:12:48;;;;;;;4.25;3.55;;;19.90;92.90;;;;;;4953449;28;20098;-70
2021/09/16 10:15:18;;;;;;;5.22;3.33;;;19.90;92.60;;;;;;4950641;28;20031;-69
2021/09/16 10:17:46;;;;;;;5.65;3.28;;;19.90;92.50;;;;;;4950805;28;20032;-70
2021/09/16 10:20:13;;;;;;;;;;;20.00;92.90;;;;;;4968612;28;20046;-69
2021/09/16 10:22:39;;;;;;;5.00;3.00;;;20.00;91.70;;;;;;4966233;28;19923;-69
2021/09/16 10:25:07;;;;;;;5.88;3.00;;;20.00;92.80;;;;;;4952044;28;20287;-70
2021/09/16 10:27:33;;;;;;;;;;;20.00;91.70;;;;;;4953022;28;20031;-70
2021/09/16 10:30:19;;;;;;;3.83;2.85;;;20.00;92.20;;;;;;4949817;28;19966;-69
2021/09/16 10:32:45;;;;;;;6.05;3.47;;;20.00;92.00;;;;;;4951158;28;20042;-69
2021/09/16 10:35:16;;;;;;;5.47;2.95;;;20.00;91.70;;;;;;4954290;28;20024;-70
2021/09/16 10:37:41;;;;;;;4.25;3.03;;;20.00;92.00;;;;;;4953996;28;20116;-70
2021/09/16 10:40:23;;;;;;;5.25;3.40;;;20.00;92.20;;;;;;4949066;28;21173;-70
2021/09/16 10:42:58;;;;;;;2.58;2.20;;;20.00;92.40;;;;;;4952160;28;20086;-70
2021/09/16 10:45:31;;;;;;;4.22;2.90;;;20.00;92.20;;;;;;4948186;28;20028;-70
2021/09/16 10:48:15;;;;;;;4.03;2.50;;;20.00;92.40;;;;;;4948616;28;20027;-71
2021/09/16 10:50:43;;;;;;;5.55;2.85;;;19.90;92.30;;;;;;4952299;28;20090;-69
2021/09/16 10:53:31;;;;;;;4.70;2.88;;;19.80;92.30;;;;;;4948631;28;20090;-69
2021/09/16 10:55:57;;;;;;;5.93;2.75;;;19.70;92.50;;;;;;4964916;28;20442;-70
2021/09/16 10:58:27;;;;;;;5.18;2.92;;;19.60;92.80;;;;;;4951205;28;20047;-69
2021/09/16 11:00:53;;;;;;;4.32;2.70;;;19.50;93.30;;;;;;4966615;28;20028;-68
2021/09/16 11:03:19;;;;;;;4.07;3.10;;;19.50;93.60;;;;;;4952002;28;20364;-69
2021/09/16 11:05:50;;;;;;;3.85;3.42;;;19.50;93.80;;;;;;4952574;28;20086;-69
2021/09/16 11:08:18;;;;;;;5.15;3.20;;;19.50;94.20;;;;;;4966925;28;20041;-69
2021/09/16 11:10:44;;;;;;;8.32;3.67;;;19.60;94.60;;;;;;4953358;28;20046;-69
2021/09/16 11:13:37;;;;;;;5.20;3.55;;;19.60;94.60;;;;;;4956040;28;20031;-69
2021/09/16 11:16:04;;;;;;;5.93;3.35;;;19.80;95.30;;;;;;4949808;28;20481;-70
2021/09/16 11:18:29;;;;;;;6.88;3.97;;;19.90;95.10;;;;;;4952749;28;20412;-69
2021/09/16 11:21:06;;;;;;;8.60;4.47;;;19.90;94.30;;;;;;4948470;28;20035;-69
2021/09/16 11:23:42;;;;;;;6.67;4.10;;;19.90;94.10;;;;;;4949621;28;20066;-70
2021/09/16 11:26:20;;;;;;;6.57;3.70;;;20.00;94.30;;;;;;4962219;28;20042;-69
2021/09/16 11:29:18;;;;;;;4.60;3.38;;;20.00;94.60;;;;;;4944952;28;20031;-69
2021/09/16 11:31:44;;;;;;;3.45;2.83;;;20.10;94.30;;;;;;4942968;28;20057;-69
2021/09/16 11:34:15;;;;;;;4.28;2.85;;;20.10;94.10;;;;;;4968807;28;20030;-68
2021/09/16 11:37:21;;;;;;;4.20;2.65;;;20.20;93.60;;;;;;4955187;28;20495;-69
2021/09/16 11:40:13;;;;;;;4.07;2.10;;;20.10;93.60;;;;;;4944672;28;20153;-69
2021/09/16 11:42:42;;;;;;;4.95;2.47;;;20.10;92.80;;;;;;4939511;28;20420;-69
2021/09/16 11:45:11;;;;;;;5.35;2.10;;;20.10;92.60;;;;;;4951294;28;20031;-69
2021/09/16 11:47:47;;;;;;;3.55;2.38;;;20.10;92.80;;;;;;4956803;28;20031;-72
2021/09/16 11:51:09;;;;;;;2.53;2.33;;;20.00;92.70;;;;;;4947814;28;20036;-69
2021/09/16 11:53:36;;;;;;;6.20;2.50;;;19.90;93.00;;;;;;4922078;29;20115;-69
2021/09/16 11:56:09;;;;;;;4.00;3.17;;;19.90;93.30;;;;;;4946866;28;20054;-69
2021/09/16 11:58:36;;;;;;;4.43;3.10;;;19.90;93.60;;;;;;4945347;28;20617;-69
2021/09/16 12:01:05;;;;;;;6.63;3.30;;;19.90;94.00;;;;;;4950257;28;20714;-69
2021/09/16 12:03:33;;;;;;;6.38;4.07;;;20.00;93.90;;;;;;4949896;28;20027;-69
2021/09/16 12:06:00;;;;;;;;;;;20.00;94.10;;;;;;4951810;28;20031;-69
2021/09/16 12:08:43;;;;;;;3.65;3.35;;;20.10;94.50;;;;;;4949831;28;20008;-69
2021/09/16 12:11:14;;;;;;;4.72;3.70;;;20.30;95.40;;;;;;4949808;28;20114;-70
2021/09/16 12:13:41;;;;;;;5.85;3.78;;;20.30;93.10;;;;;;4950878;28;20529;-69
2021/09/16 12:16:23;;;;;;;4.03;3.40;;;20.30;92.90;;;;;;4950388;28;20058;-69
2021/09/16 12:18:53;;;;;;;5.30;3.50;;;20.30;92.90;;;;;;4952093;28;20027;-69
2021/09/16 12:21:21;;;;;;;1.50;1.40;;;20.30;92.10;;;;;;4947191;28;20031;-70
2021/09/16 12:23:51;;;;;;;1.70;1.43;;;19.90;89.00;;;;;;4960092;28;20043;-69
2021/09/16 12:26:28;;;;;;;2.53;1.20;;;19.40;90.50;;;;;;4949119;28;20301;-69
2021/09/16 12:28:56;;;;;;;3.42;1.30;;;19.10;91.70;;;;;;4950108;28;20030;-69
2021/09/16 12:31:59;;;;;;;2.92;1.40;;;19.00;91.90;;;;;;4947775;28;20047;-69
2021/09/16 12:34:33;;;;;;;1.35;1.20;;;18.90;92.10;;;;;;4947228;29;20071;-68
2021/09/16 12:37:00;;;;;;;2.00;1.20;;;18.80;92.30;;;;;;4948556;28;20094;-69
2021/09/16 12:39:28;;;;;;;2.00;1.45;;;18.70;92.30;;;;;;4953041;28;20554;-69
2021/09/16 12:42:00;;;;;;;;;;;18.70;92.70;;;;;;4947849;28;20023;-69
2021/09/16 12:44:34;;;;;;;1.38;1.27;;;18.80;92.90;;;;;;4965391;28;19914;-68
2021/09/16 12:47:17;;;;;;;2.00;1.23;;;18.70;92.60;;;;;;4947009;28;20461;-69
2021/09/16 12:49:42;;;;;;;2.67;1.40;;;18.70;92.90;;;;;;4965244;28;20477;-68